METAR Data
IDs: Format: Raw Decoded Include TAF

Data at: 1259 UTC 07 Oct 2022

EHGR 071255Z AUTO 21009KT 150V250 9999 FEW035 BKN280 BKN360 18/10 Q1020 BLU NOSIG